Cj Studdert — WDJ2968 — position and weather

sailwx.info

Track history (hours):
 
Tides and Currents Weather Stations Pressure Air Temp Water Temp Dewpoint Dewpoint Depression Visibility Wind Speed Wind Dir Waves Ship Positions

Cj Studdert

Owner: Shamrock Marine, LLC, Houston, TX. More information available from US FCC via Universal Licensing System and Coast Guard Vessel Documentation Center.

Last reported at 2018-Feb-21 06:36 UTC. Time now 2018-Feb-22 04:53 UTC.
Position N 29°23' W 094°52'.

Length 29 m; draft 3 m.

Type: Tug. MMSI: 367763490.

Date/timePositionNaut miles runAvg speedWind from/ knotsBaromVisibWave heightAir tempDewpointWater temp
2018-Feb-21 06:36N 29°23' W 094°52'0 0.0
2018-Feb-21 06:11N 29°23' W 094°52'0 0.0
2018-Feb-21 06:00N 29°23' W 094°52'0 0.0
2018-Feb-21 04:56N 29°23' W 094°52'0 0.0
2018-Feb-21 04:25N 29°23' W 094°52'0 0.0
2018-Feb-21 03:43N 29°23' W 094°52'0 0.0
2018-Feb-21 03:25N 29°23' W 094°52'0 0.0
2018-Feb-21 02:58N 29°23' W 094°52'0 0.0
2018-Feb-21 02:28N 29°23' W 094°52'0 0.0
2018-Feb-21 01:57N 29°23' W 094°52'0 0.0
2018-Feb-21 01:26N 29°23' W 094°52'0 0.0
2018-Feb-20 22:19N 29°23' W 094°52'1 0.3
2018-Feb-20 17:18N 29°22' W 094°54'0 0.0
2018-Feb-20 16:58N 29°22' W 094°54'0 0.0
2018-Feb-20 16:21N 29°22' W 094°54'0 0.0
2018-Feb-20 13:53N 29°22' W 094°54'0 0.0
2018-Feb-20 13:24N 29°22' W 094°54'0 0.0
2018-Feb-20 13:00N 29°22' W 094°54'0 0.0
2018-Feb-20 12:18N 29°22' W 094°54'0 0.0
2018-Feb-20 07:32N 29°22' W 094°54'0 0.0
2018-Feb-20 07:26N 29°22' W 094°54'0 0.0
2018-Feb-20 06:59N 29°22' W 094°54'7 0.9
2018-Feb-19 22:31N 29°29' W 094°52'0 9.4
2018-Feb-19 22:28N 29°30' W 094°52'4 9.0
2018-Feb-19 22:00N 29°33' W 094°55'4 8.4
2018-Feb-19 21:30N 29°37' W 094°57'4 8.6
2018-Feb-19 20:59N 29°41' W 094°59'3 6.9
2018-Feb-19 20:29N 29°43' W 095°01'4 7.6
2018-Feb-19 19:59N 29°46' W 095°05'4 7.6
2018-Feb-19 19:29N 29°44' W 095°09'7 1.4
2018-Feb-19 14:43N 29°43' W 095°16'0 0.2
2018-Feb-19 14:09N 29°43' W 095°16'0 1.0
2018-Feb-19 14:00N 29°44' W 095°16'2 0.3
2018-Feb-19 08:44N 29°45' W 095°17'0 0.0
2018-Feb-19 08:22N 29°45' W 095°17'0 0.0
2018-Feb-19 07:59N 29°45' W 095°17'0 0.0
2018-Feb-19 07:30N 29°45' W 095°17'0 0.0
2018-Feb-19 07:00N 29°45' W 095°17'0 0.0
2018-Feb-19 06:03N 29°45' W 095°17'0 4.3
2018-Feb-19 05:58N 29°45' W 095°17'6 1.6
2018-Feb-19 02:10N 29°45' W 095°10'1 8.8
2018-Feb-19 02:00N 29°44' W 095°09'4 7.8
2018-Feb-19 01:29N 29°46' W 095°04'2 2.3
2018-Feb-19 00:36N 29°44' W 095°03'0 0.0
2018-Feb-18 19:07N 29°44' W 095°03'0 0.0
2018-Feb-18 19:00N 29°44' W 095°03'0 0.0
2018-Feb-18 18:27N 29°44' W 095°03'0 0.0
2018-Feb-18 18:00N 29°44' W 095°03'0 0.0
2018-Feb-18 17:28N 29°44' W 095°03'0 0.0
2018-Feb-18 17:00N 29°44' W 095°03'0 0.0
2018-Feb-18 16:27N 29°44' W 095°03'0 0.0
2018-Feb-18 16:00N 29°44' W 095°03'0 0.0
2018-Feb-18 15:27N 29°44' W 095°03'0 0.0
2018-Feb-18 15:00N 29°44' W 095°03'0 0.0
2018-Feb-18 14:30N 29°44' W 095°03'0 0.0
2018-Feb-18 13:51N 29°44' W 095°03'0 0.0
2018-Feb-18 10:50N 29°44' W 095°03'0 0.0
2018-Feb-18 10:14N 29°44' W 095°03'0 0.0
2018-Feb-18 09:53N 29°44' W 095°03'0 0.0
2018-Feb-18 09:25N 29°44' W 095°03'0 0.0
2018-Feb-18 07:37N 29°44' W 095°03'0 0.0
2018-Feb-18 07:21N 29°44' W 095°03'0 0.0
2018-Feb-18 07:00N 29°44' W 095°03'0 0.0
2018-Feb-18 06:14N 29°44' W 095°03'0 0.0
2018-Feb-18 04:35N 29°44' W 095°03'0 0.0
2018-Feb-18 03:06N 29°44' W 095°03'0 1.8
2018-Feb-18 02:59N 29°44' W 095°03'0 0.4
2018-Feb-18 02:30N 29°44' W 095°03'0 0.0
2018-Feb-18 02:00N 29°44' W 095°03'0 0.0
2018-Feb-18 01:30N 29°44' W 095°03'0 0.0
2018-Feb-18 00:59N 29°44' W 095°03'0 0.0
2018-Feb-18 00:30N 29°44' W 095°03'0 0.0
2018-Feb-18 00:00N 29°44' W 095°03'0 0.0
2018-Feb-17 23:30N 29°44' W 095°03'0 0.0
2018-Feb-17 23:00N 29°44' W 095°03'1 2.0
2018-Feb-17 22:30N 29°44' W 095°02'2 5.0
2018-Feb-17 22:00N 29°42' W 094°60'3 5.2
2018-Feb-17 21:30N 29°40' W 094°58'3 6.0
2018-Feb-17 21:00N 29°37' W 094°57'3 6.0
2018-Feb-17 20:30N 29°34' W 094°55'3 5.8
2018-Feb-17 20:00N 29°32' W 094°54'3 5.6
2018-Feb-17 19:30N 29°30' W 094°52'7 0.7
2018-Feb-17 10:05N 29°23' W 094°52'0 0.0
2018-Feb-17 09:56N 29°23' W 094°52'0 0.0
2018-Feb-17 09:14N 29°23' W 094°52'0 0.0
2018-Feb-17 08:53N 29°23' W 094°52'0 0.0
2018-Feb-17 08:30N 29°23' W 094°52'0 0.0
2018-Feb-17 08:00N 29°23' W 094°52'0 0.0
2018-Feb-17 07:26N 29°23' W 094°52'0 0.0
2018-Feb-17 07:00N 29°23' W 094°52'0 0.0
2018-Feb-17 06:28N 29°23' W 094°52'0 0.0
2018-Feb-17 06:00N 29°23' W 094°52'0 0.0
2018-Feb-17 05:30N 29°23' W 094°52'0 0.0
2018-Feb-17 05:00N 29°23' W 094°52'0 0.0
2018-Feb-17 04:26N 29°23' W 094°52'0 0.0
2018-Feb-17 04:00N 29°23' W 094°52'0 0.0
2018-Feb-17 03:28N 29°23' W 094°52'0 0.0
2018-Feb-17 03:00N 29°23' W 094°52'0 0.0
2018-Feb-17 02:30N 29°23' W 094°52'0 0.0
2018-Feb-17 02:00N 29°23' W 094°52'0 0.0
2018-Feb-17 01:30N 29°23' W 094°52'0 0.0
2018-Feb-17 01:00N 29°23' W 094°52'0 0.0
2018-Feb-17 00:23N 29°23' W 094°52'0 0.0
2018-Feb-16 23:57N 29°23' W 094°52'0 0.1
2018-Feb-16 23:27N 29°23' W 094°52'0 0.1
2018-Feb-16 22:59N 29°23' W 094°52'0 0.0
2018-Feb-16 10:24N 29°23' W 094°52'0 0.0
2018-Feb-16 09:57N 29°23' W 094°52'0 0.0
2018-Feb-16 09:25N 29°23' W 094°52'0 0.0
2018-Feb-16 08:55N 29°23' W 094°52'0 0.0
2018-Feb-16 08:30N 29°23' W 094°52'0 0.0
2018-Feb-16 08:00N 29°23' W 094°52'0 0.0
2018-Feb-16 07:30N 29°23' W 094°52'0 0.0
2018-Feb-16 07:00N 29°23' W 094°52'0 0.0
2018-Feb-16 06:30N 29°23' W 094°52'0 0.0
2018-Feb-16 05:59N 29°23' W 094°52'0 0.0
2018-Feb-16 05:30N 29°23' W 094°52'0 0.0
2018-Feb-16 05:00N 29°23' W 094°52'0 0.0
2018-Feb-16 04:28N 29°23' W 094°52'0 0.0
2018-Feb-16 03:59N 29°23' W 094°52'0 0.0
2018-Feb-16 03:30N 29°23' W 094°52'0 0.0
2018-Feb-16 03:00N 29°23' W 094°52'0 0.0
2018-Feb-16 02:28N 29°23' W 094°52'0 0.0
2018-Feb-16 02:00N 29°23' W 094°52'0 0.0
2018-Feb-16 01:29N 29°23' W 094°52'0 0.2
2018-Feb-16 00:59N 29°23' W 094°52'0 0.2
2018-Feb-16 00:30N 29°23' W 094°52'0 0.0
2018-Feb-15 23:59N 29°23' W 094°52'0 0.0
2018-Feb-15 23:30N 29°23' W 094°52'0 0.0
2018-Feb-15 22:59N 29°23' W 094°52'0 0.0
2018-Feb-15 22:15N 29°23' W 094°52'0 0.0
2018-Feb-15 21:48N 29°23' W 094°52'0 0.0
2018-Feb-15 21:08N 29°23' W 094°52'0 0.0
2018-Feb-15 20:56N 29°23' W 094°52'0 0.0
2018-Feb-15 20:30N 29°23' W 094°52'0 0.0
2018-Feb-15 19:48N 29°23' W 094°52'0 0.0
2018-Feb-15 19:31N 29°23' W 094°52'0 0.0
2018-Feb-15 18:31N 29°23' W 094°52'0 0.0
2018-Feb-15 18:30N 29°23' W 094°52'0 0.0
2018-Feb-15 17:43N 29°23' W 094°52'0 0.0
2018-Feb-15 17:26N 29°23' W 094°52'0 0.0
2018-Feb-15 16:58N 29°23' W 094°52'0 0.0
2018-Feb-15 16:25N 29°23' W 094°52'0 0.0
2018-Feb-15 16:00N 29°23' W 094°52'0 0.0
2018-Feb-15 15:30N 29°23' W 094°52'0 0.0
2018-Feb-15 14:33N 29°23' W 094°52'0 0.0
2018-Feb-15 13:58N 29°23' W 094°52'0 0.0
2018-Feb-15 13:09N 29°23' W 094°52'0 0.0
2018-Feb-15 12:49N 29°23' W 094°52'0 0.0
2018-Feb-15 12:23N 29°23' W 094°52'0 0.0
2018-Feb-15 11:48N 29°23' W 094°52'0 0.0
2018-Feb-15 11:30N 29°23' W 094°52'0 0.0
2018-Feb-15 11:00N 29°23' W 094°52'0 0.0
2018-Feb-15 10:26N 29°23' W 094°52'0 0.0
2018-Feb-15 10:00N 29°23' W 094°52'0 0.0
2018-Feb-15 09:31N 29°23' W 094°52'0 0.0
2018-Feb-15 08:58N 29°23' W 094°52'0 0.0
2018-Feb-15 08:30N 29°23' W 094°52'0 0.0
2018-Feb-15 07:58N 29°23' W 094°52'0 0.0
2018-Feb-15 07:30N 29°23' W 094°52'0 0.0
2018-Feb-15 07:00N 29°23' W 094°52'0 0.0
2018-Feb-15 06:29N 29°23' W 094°52'0 0.0
2018-Feb-15 06:00N 29°23' W 094°52'0 0.0
2018-Feb-15 05:28N 29°23' W 094°52'0 0.0
2018-Feb-15 05:00N 29°23' W 094°52'0 0.0
2018-Feb-15 04:30N 29°23' W 094°52'0 0.0
2018-Feb-15 04:00N 29°23' W 094°52'0 0.0
2018-Feb-15 03:30N 29°23' W 094°52'0 0.0
2018-Feb-15 03:00N 29°23' W 094°52'0 0.0
2018-Feb-15 02:30N 29°23' W 094°52'0 0.0
2018-Feb-15 01:59N 29°23' W 094°52'0 0.0
2018-Feb-15 01:13N 29°23' W 094°52'0 0.0
2018-Feb-15 01:00N 29°23' W 094°52'0 0.0
2018-Feb-15 00:27N 29°23' W 094°52'0 0.0
2018-Feb-14 23:57N 29°23' W 094°52'0 0.0
2018-Feb-14 23:16N 29°23' W 094°52'0 0.0
2018-Feb-14 22:57N 29°23' W 094°52'0 0.0
2018-Feb-14 22:27N 29°23' W 094°52'0 0.0
2018-Feb-14 21:35N 29°23' W 094°52'0 0.0
2018-Feb-14 21:29N 29°23' W 094°52'0 0.0
2018-Feb-14 20:54N 29°23' W 094°52'0 0.0
2018-Feb-14 20:27N 29°23' W 094°52'0 0.0
2018-Feb-14 20:00N 29°23' W 094°52'0 0.0
2018-Feb-14 19:30N 29°23' W 094°52'0 0.1
2018-Feb-14 19:01N 29°23' W 094°52'1 1.3
2018-Feb-14 18:28N 29°23' W 094°53'1 0.5
2018-Feb-14 16:46N 29°22' W 094°53'0 0.0
2018-Feb-14 15:02N 29°22' W 094°53'0 0.2
2018-Feb-14 14:43N 29°22' W 094°53'0 0.0
2018-Feb-12 16:31N 29°22' W 094°53'0 0.1
2018-Feb-12 16:27N 29°22' W 094°53'1 1.0
2018-Feb-12 15:17N 29°23' W 094°52'0 0.1
2018-Feb-12 14:52N 29°23' W 094°52'0 0.0
2018-Feb-12 01:28N 29°23' W 094°52'0 0.0
2018-Feb-12 00:59N 29°23' W 094°52'0 0.0
2018-Feb-11 22:28N 29°23' W 094°52'  
Track history (hours):
 
Tides and Currents Weather Stations Pressure Air Temp Water Temp Dewpoint Dewpoint Depression Visibility Wind Speed Wind Dir Waves Ship Positions

Cj Studdert

Owner: Shamrock Marine, LLC, Houston, TX. More information available from US FCC via Universal Licensing System and Coast Guard Vessel Documentation Center.

Last reported at 2018-Feb-21 06:36 UTC. Time now 2018-Feb-22 04:53 UTC.
Position N 29°23' W 094°52'.

Length 29 m; draft 3 m.

Type: Tug. MMSI: 367763490.

Date/timePositionNaut miles runAvg speedWind from/ knotsBaromVisibWave heightAir tempDewpointWater temp
2018-Feb-21 06:36N 29°23' W 094°52'0 0.0
2018-Feb-21 06:11N 29°23' W 094°52'0 0.0
2018-Feb-21 06:00N 29°23' W 094°52'0 0.0
2018-Feb-21 04:56N 29°23' W 094°52'0 0.0
2018-Feb-21 04:25N 29°23' W 094°52'0 0.0
2018-Feb-21 03:43N 29°23' W 094°52'0 0.0
2018-Feb-21 03:25N 29°23' W 094°52'0 0.0
2018-Feb-21 02:58N 29°23' W 094°52'0 0.0
2018-Feb-21 02:28N 29°23' W 094°52'0 0.0
2018-Feb-21 01:57N 29°23' W 094°52'0 0.0
2018-Feb-21 01:26N 29°23' W 094°52'0 0.0
2018-Feb-20 22:19N 29°23' W 094°52'1 0.3
2018-Feb-20 17:18N 29°22' W 094°54'0 0.0
2018-Feb-20 16:58N 29°22' W 094°54'0 0.0
2018-Feb-20 16:21N 29°22' W 094°54'0 0.0
2018-Feb-20 13:53N 29°22' W 094°54'0 0.0
2018-Feb-20 13:24N 29°22' W 094°54'0 0.0
2018-Feb-20 13:00N 29°22' W 094°54'0 0.0
2018-Feb-20 12:18N 29°22' W 094°54'0 0.0
2018-Feb-20 07:32N 29°22' W 094°54'0 0.0
2018-Feb-20 07:26N 29°22' W 094°54'0 0.0
2018-Feb-20 06:59N 29°22' W 094°54'7 0.9
2018-Feb-19 22:31N 29°29' W 094°52'0 9.4
2018-Feb-19 22:28N 29°30' W 094°52'4 9.0
2018-Feb-19 22:00N 29°33' W 094°55'4 8.4
2018-Feb-19 21:30N 29°37' W 094°57'4 8.6
2018-Feb-19 20:59N 29°41' W 094°59'3 6.9
2018-Feb-19 20:29N 29°43' W 095°01'4 7.6
2018-Feb-19 19:59N 29°46' W 095°05'4 7.6
2018-Feb-19 19:29N 29°44' W 095°09'7 1.4
2018-Feb-19 14:43N 29°43' W 095°16'0 0.2
2018-Feb-19 14:09N 29°43' W 095°16'0 1.0
2018-Feb-19 14:00N 29°44' W 095°16'2 0.3
2018-Feb-19 08:44N 29°45' W 095°17'0 0.0
2018-Feb-19 08:22N 29°45' W 095°17'0 0.0
2018-Feb-19 07:59N 29°45' W 095°17'0 0.0
2018-Feb-19 07:30N 29°45' W 095°17'0 0.0
2018-Feb-19 07:00N 29°45' W 095°17'0 0.0
2018-Feb-19 06:03N 29°45' W 095°17'0 4.3
2018-Feb-19 05:58N 29°45' W 095°17'6 1.6
2018-Feb-19 02:10N 29°45' W 095°10'1 8.8
2018-Feb-19 02:00N 29°44' W 095°09'4 7.8
2018-Feb-19 01:29N 29°46' W 095°04'2 2.3
2018-Feb-19 00:36N 29°44' W 095°03'0 0.0
2018-Feb-18 19:07N 29°44' W 095°03'0 0.0
2018-Feb-18 19:00N 29°44' W 095°03'0 0.0
2018-Feb-18 18:27N 29°44' W 095°03'0 0.0
2018-Feb-18 18:00N 29°44' W 095°03'0 0.0
2018-Feb-18 17:28N 29°44' W 095°03'0 0.0
2018-Feb-18 17:00N 29°44' W 095°03'0 0.0
2018-Feb-18 16:27N 29°44' W 095°03'0 0.0
2018-Feb-18 16:00N 29°44' W 095°03'0 0.0
2018-Feb-18 15:27N 29°44' W 095°03'0 0.0
2018-Feb-18 15:00N 29°44' W 095°03'0 0.0
2018-Feb-18 14:30N 29°44' W 095°03'0 0.0
2018-Feb-18 13:51N 29°44' W 095°03'0 0.0
2018-Feb-18 10:50N 29°44' W 095°03'0 0.0
2018-Feb-18 10:14N 29°44' W 095°03'0 0.0
2018-Feb-18 09:53N 29°44' W 095°03'0 0.0
2018-Feb-18 09:25N 29°44' W 095°03'0 0.0
2018-Feb-18 07:37N 29°44' W 095°03'0 0.0
2018-Feb-18 07:21N 29°44' W 095°03'0 0.0
2018-Feb-18 07:00N 29°44' W 095°03'0 0.0
2018-Feb-18 06:14N 29°44' W 095°03'0 0.0
2018-Feb-18 04:35N 29°44' W 095°03'0 0.0
2018-Feb-18 03:06N 29°44' W 095°03'0 1.8
2018-Feb-18 02:59N 29°44' W 095°03'0 0.4
2018-Feb-18 02:30N 29°44' W 095°03'0 0.0
2018-Feb-18 02:00N 29°44' W 095°03'0 0.0
2018-Feb-18 01:30N 29°44' W 095°03'0 0.0
2018-Feb-18 00:59N 29°44' W 095°03'0 0.0
2018-Feb-18 00:30N 29°44' W 095°03'0 0.0
2018-Feb-18 00:00N 29°44' W 095°03'0 0.0
2018-Feb-17 23:30N 29°44' W 095°03'0 0.0
2018-Feb-17 23:00N 29°44' W 095°03'1 2.0
2018-Feb-17 22:30N 29°44' W 095°02'2 5.0
2018-Feb-17 22:00N 29°42' W 094°60'3 5.2
2018-Feb-17 21:30N 29°40' W 094°58'3 6.0
2018-Feb-17 21:00N 29°37' W 094°57'3 6.0
2018-Feb-17 20:30N 29°34' W 094°55'3 5.8
2018-Feb-17 20:00N 29°32' W 094°54'3 5.6
2018-Feb-17 19:30N 29°30' W 094°52'7 0.7
2018-Feb-17 10:05N 29°23' W 094°52'0 0.0
2018-Feb-17 09:56N 29°23' W 094°52'0 0.0
2018-Feb-17 09:14N 29°23' W 094°52'0 0.0
2018-Feb-17 08:53N 29°23' W 094°52'0 0.0
2018-Feb-17 08:30N 29°23' W 094°52'0 0.0
2018-Feb-17 08:00N 29°23' W 094°52'0 0.0
2018-Feb-17 07:26N 29°23' W 094°52'0 0.0
2018-Feb-17 07:00N 29°23' W 094°52'0 0.0
2018-Feb-17 06:28N 29°23' W 094°52'0 0.0
2018-Feb-17 06:00N 29°23' W 094°52'0 0.0
2018-Feb-17 05:30N 29°23' W 094°52'0 0.0
2018-Feb-17 05:00N 29°23' W 094°52'0 0.0
2018-Feb-17 04:26N 29°23' W 094°52'0 0.0
2018-Feb-17 04:00N 29°23' W 094°52'0 0.0
2018-Feb-17 03:28N 29°23' W 094°52'0 0.0
2018-Feb-17 03:00N 29°23' W 094°52'0 0.0
2018-Feb-17 02:30N 29°23' W 094°52'0 0.0
2018-Feb-17 02:00N 29°23' W 094°52'0 0.0
2018-Feb-17 01:30N 29°23' W 094°52'0 0.0
2018-Feb-17 01:00N 29°23' W 094°52'0 0.0
2018-Feb-17 00:23N 29°23' W 094°52'0 0.0
2018-Feb-16 23:57N 29°23' W 094°52'0 0.1
2018-Feb-16 23:27N 29°23' W 094°52'0 0.1
2018-Feb-16 22:59N 29°23' W 094°52'0 0.0
2018-Feb-16 10:24N 29°23' W 094°52'0 0.0
2018-Feb-16 09:57N 29°23' W 094°52'0 0.0
2018-Feb-16 09:25N 29°23' W 094°52'0 0.0
2018-Feb-16 08:55N 29°23' W 094°52'0 0.0
2018-Feb-16 08:30N 29°23' W 094°52'0 0.0
2018-Feb-16 08:00N 29°23' W 094°52'0 0.0
2018-Feb-16 07:30N 29°23' W 094°52'0 0.0
2018-Feb-16 07:00N 29°23' W 094°52'0 0.0
2018-Feb-16 06:30N 29°23' W 094°52'0 0.0
2018-Feb-16 05:59N 29°23' W 094°52'0 0.0
2018-Feb-16 05:30N 29°23' W 094°52'0 0.0
2018-Feb-16 05:00N 29°23' W 094°52'0 0.0
2018-Feb-16 04:28N 29°23' W 094°52'0 0.0
2018-Feb-16 03:59N 29°23' W 094°52'0 0.0
2018-Feb-16 03:30N 29°23' W 094°52'0 0.0
2018-Feb-16 03:00N 29°23' W 094°52'0 0.0
2018-Feb-16 02:28N 29°23' W 094°52'0 0.0
2018-Feb-16 02:00N 29°23' W 094°52'0 0.0
2018-Feb-16 01:29N 29°23' W 094°52'0 0.2
2018-Feb-16 00:59N 29°23' W 094°52'0 0.2
2018-Feb-16 00:30N 29°23' W 094°52'0 0.0
2018-Feb-15 23:59N 29°23' W 094°52'0 0.0
2018-Feb-15 23:30N 29°23' W 094°52'0 0.0
2018-Feb-15 22:59N 29°23' W 094°52'0 0.0
2018-Feb-15 22:15N 29°23' W 094°52'0 0.0
2018-Feb-15 21:48N 29°23' W 094°52'0 0.0
2018-Feb-15 21:08N 29°23' W 094°52'0 0.0
2018-Feb-15 20:56N 29°23' W 094°52'0 0.0
2018-Feb-15 20:30N 29°23' W 094°52'0 0.0
2018-Feb-15 19:48N 29°23' W 094°52'0 0.0
2018-Feb-15 19:31N 29°23' W 094°52'0 0.0
2018-Feb-15 18:31N 29°23' W 094°52'0 0.0
2018-Feb-15 18:30N 29°23' W 094°52'0 0.0
2018-Feb-15 17:43N 29°23' W 094°52'0 0.0
2018-Feb-15 17:26N 29°23' W 094°52'0 0.0
2018-Feb-15 16:58N 29°23' W 094°52'0 0.0
2018-Feb-15 16:25N 29°23' W 094°52'0 0.0
2018-Feb-15 16:00N 29°23' W 094°52'0 0.0
2018-Feb-15 15:30N 29°23' W 094°52'0 0.0
2018-Feb-15 14:33N 29°23' W 094°52'0 0.0
2018-Feb-15 13:58N 29°23' W 094°52'0 0.0
2018-Feb-15 13:09N 29°23' W 094°52'0 0.0
2018-Feb-15 12:49N 29°23' W 094°52'0 0.0
2018-Feb-15 12:23N 29°23' W 094°52'0 0.0
2018-Feb-15 11:48N 29°23' W 094°52'0 0.0
2018-Feb-15 11:30N 29°23' W 094°52'0 0.0
2018-Feb-15 11:00N 29°23' W 094°52'0 0.0
2018-Feb-15 10:26N 29°23' W 094°52'0 0.0
2018-Feb-15 10:00N 29°23' W 094°52'0 0.0
2018-Feb-15 09:31N 29°23' W 094°52'0 0.0
2018-Feb-15 08:58N 29°23' W 094°52'0 0.0
2018-Feb-15 08:30N 29°23' W 094°52'0 0.0
2018-Feb-15 07:58N 29°23' W 094°52'0 0.0
2018-Feb-15 07:30N 29°23' W 094°52'0 0.0
2018-Feb-15 07:00N 29°23' W 094°52'0 0.0
2018-Feb-15 06:29N 29°23' W 094°52'0 0.0
2018-Feb-15 06:00N 29°23' W 094°52'0 0.0
2018-Feb-15 05:28N 29°23' W 094°52'0 0.0
2018-Feb-15 05:00N 29°23' W 094°52'0 0.0
2018-Feb-15 04:30N 29°23' W 094°52'0 0.0
2018-Feb-15 04:00N 29°23' W 094°52'0 0.0
2018-Feb-15 03:30N 29°23' W 094°52'0 0.0
2018-Feb-15 03:00N 29°23' W 094°52'0 0.0
2018-Feb-15 02:30N 29°23' W 094°52'0 0.0
2018-Feb-15 01:59N 29°23' W 094°52'0 0.0
2018-Feb-15 01:13N 29°23' W 094°52'0 0.0
2018-Feb-15 01:00N 29°23' W 094°52'0 0.0
2018-Feb-15 00:27N 29°23' W 094°52'0 0.0
2018-Feb-14 23:57N 29°23' W 094°52'0 0.0
2018-Feb-14 23:16N 29°23' W 094°52'0 0.0
2018-Feb-14 22:57N 29°23' W 094°52'0 0.0
2018-Feb-14 22:27N 29°23' W 094°52'0 0.0
2018-Feb-14 21:35N 29°23' W 094°52'0 0.0
2018-Feb-14 21:29N 29°23' W 094°52'0 0.0
2018-Feb-14 20:54N 29°23' W 094°52'0 0.0
2018-Feb-14 20:27N 29°23' W 094°52'0 0.0
2018-Feb-14 20:00N 29°23' W 094°52'0 0.0
2018-Feb-14 19:30N 29°23' W 094°52'0 0.1
2018-Feb-14 19:01N 29°23' W 094°52'1 1.3
2018-Feb-14 18:28N 29°23' W 094°53'1 0.5
2018-Feb-14 16:46N 29°22' W 094°53'0 0.0
2018-Feb-14 15:02N 29°22' W 094°53'0 0.2
2018-Feb-14 14:43N 29°22' W 094°53'0 0.0
2018-Feb-12 16:31N 29°22' W 094°53'0 0.1
2018-Feb-12 16:27N 29°22' W 094°53'1 1.0
2018-Feb-12 15:17N 29°23' W 094°52'0 0.1
2018-Feb-12 14:52N 29°23' W 094°52'0 0.0
2018-Feb-12 01:28N 29°23' W 094°52'0 0.0
2018-Feb-12 00:59N 29°23' W 094°52'0 0.0
2018-Feb-11 22:28N 29°23' W 094°52'  

Dump ship's entire track history